createdAt,value
2023-02-08T00:00:47.068Z,101234.50
2023-02-08T00:03:13.671Z,101230.66
2023-02-08T00:05:41.561Z,101221.41
2023-02-08T00:08:08.506Z,101214.66
2023-02-08T00:10:35.458Z,101217.13
2023-02-08T00:13:02.107Z,101212.41
2023-02-08T00:15:28.817Z,101200.47
2023-02-08T00:17:55.388Z,101202.41
2023-02-08T00:20:22.111Z,101203.66
2023-02-08T00:22:48.823Z,101204.59
2023-02-08T00:25:15.393Z,101208.09
2023-02-08T00:27:42.036Z,101205.41
2023-02-08T00:30:09.440Z,101197.31
2023-02-08T00:32:36.072Z,101192.81
2023-02-08T00:35:02.764Z,101188.72
2023-02-08T00:37:29.398Z,101191.19
2023-02-08T00:39:55.967Z,101191.75
2023-02-08T00:42:23.017Z,101183.66
2023-02-08T00:44:49.678Z,101189.63
2023-02-08T00:47:16.389Z,101186.72
2023-02-08T00:49:43.058Z,101189.28
2023-02-08T00:52:09.844Z,101180.16
2023-02-08T00:54:36.511Z,101181.50
2023-02-08T00:57:03.121Z,101177.50
2023-02-08T00:59:29.792Z,101180.06
2023-02-08T01:01:56.374Z,101175.28
2023-02-08T01:04:23.063Z,101187.97
2023-02-08T01:06:49.769Z,101191.19
2023-02-08T01:09:16.308Z,101191.53
2023-02-08T01:11:42.894Z,101190.06
2023-02-08T01:14:10.112Z,101185.59
2023-02-08T01:16:36.712Z,101178.03
2023-02-08T01:19:05.166Z,101192.00
2023-02-08T01:21:34.016Z,101194.66
2023-02-08T01:24:01.178Z,101187.16
2023-02-08T01:26:28.542Z,101192.50
2023-02-08T01:28:56.646Z,101192.66
2023-02-08T01:31:34.846Z,101189.34
2023-02-08T01:34:02.965Z,101187.34
2023-02-08T01:36:31.055Z,101191.44
2023-02-08T01:38:57.783Z,101205.41
2023-02-08T01:41:31.237Z,101203.56
2023-02-08T01:44:28.199Z,101203.06
2023-02-08T01:46:54.894Z,101208.38
2023-02-08T01:49:34.105Z,101211.78
2023-02-08T01:52:09.783Z,101199.09
2023-02-08T01:54:46.222Z,101202.97
2023-02-08T01:57:13.410Z,101200.47
2023-02-08T01:59:42.646Z,101191.69
2023-02-08T02:04:41.278Z,101183.97
2023-02-08T02:07:08.449Z,101183.75
2023-02-08T02:09:53.586Z,101177.78
2023-02-08T02:12:21.173Z,101176.31
2023-02-08T02:14:48.206Z,101182.53
2023-02-08T02:17:16.801Z,101176.34
2023-02-08T02:19:57.835Z,101185.53
2023-02-08T02:22:57.397Z,101179.88
2023-02-08T02:25:36.116Z,101187.06
2023-02-08T02:28:27.122Z,101185.66
2023-02-08T02:31:07.482Z,101195.19
2023-02-08T02:33:58.953Z,101194.56
2023-02-08T02:36:37.450Z,101194.25
2023-02-08T02:39:34.500Z,101199.38
2023-02-08T02:42:28.751Z,101199.97
2023-02-08T02:45:27.890Z,101198.28
2023-02-08T02:48:14.682Z,101201.88
2023-02-08T02:50:55.211Z,101201.88
2023-02-08T02:53:43.988Z,101193.38
2023-02-08T02:56:16.993Z,101198.66
2023-02-08T02:58:45.060Z,101197.06
2023-02-08T03:01:12.171Z,101195.94
2023-02-08T03:03:40.101Z,101201.88
2023-02-08T03:06:12.446Z,101203.22
2023-02-08T03:08:55.465Z,101206.94
2023-02-08T03:11:27.299Z,101211.31
2023-02-08T03:14:16.220Z,101210.66
2023-02-08T03:17:04.160Z,101211.84
2023-02-08T03:19:39.026Z,101208.84
2023-02-08T03:22:14.607Z,101207.91
2023-02-08T03:25:12.226Z,101208.47
2023-02-08T03:28:06.939Z,101210.38
2023-02-08T03:30:52.802Z,101203.81
2023-02-08T03:33:27.577Z,101209.06
2023-02-08T03:36:02.646Z,101212.31
2023-02-08T03:38:37.716Z,101204.22
2023-02-08T03:41:07.855Z,101203.88
2023-02-08T03:43:40.169Z,101201.13
2023-02-08T03:46:12.260Z,101210.06
2023-02-08T03:48:43.005Z,101199.69
2023-02-08T03:51:10.462Z,101207.31
2023-02-08T03:53:40.626Z,101207.09
2023-02-08T03:56:14.164Z,101211.22
2023-02-08T03:58:46.888Z,101219.78
2023-02-08T04:01:19.477Z,101219.16
2023-02-08T04:03:50.212Z,101215.13
2023-02-08T04:06:17.475Z,101215.81
2023-02-08T04:08:44.084Z,101217.22
2023-02-08T04:11:10.889Z,101219.69
2023-02-08T04:13:38.107Z,101216.91
2023-02-08T04:16:05.225Z,101221.47
2023-02-08T04:18:31.971Z,101214.69
2023-02-08T04:20:58.665Z,101222.75
2023-02-08T04:23:25.219Z,101222.91
2023-02-08T04:25:51.933Z,101225.75
2023-02-08T04:28:18.603Z,101226.13
2023-02-08T04:30:45.263Z,101223.78
2023-02-08T04:33:15.006Z,101224.06
2023-02-08T04:35:44.605Z,101219.94
2023-02-08T04:38:11.226Z,101220.94
2023-02-08T04:40:38.244Z,101229.34
2023-02-08T04:43:04.915Z,101225.03
2023-02-08T04:45:32.229Z,101221.31
2023-02-08T04:48:01.375Z,101224.25
2023-02-08T04:50:28.090Z,101210.03
2023-02-08T04:52:54.699Z,101212.03
2023-02-08T04:55:21.463Z,101213.88
2023-02-08T04:57:48.086Z,101209.38
2023-02-08T05:00:15.159Z,101204.09
2023-02-08T05:02:41.807Z,101197.97
2023-02-08T05:05:08.643Z,101206.66
2023-02-08T05:07:35.313Z,101197.34
2023-02-08T05:10:02.204Z,101199.03
2023-02-08T05:12:28.886Z,101201.63
2023-02-08T05:14:55.741Z,101197.69
2023-02-08T05:17:22.784Z,101189.91
2023-02-08T05:19:49.378Z,101184.59
2023-02-08T05:22:16.826Z,101184.63
2023-02-08T05:24:43.697Z,101187.50
2023-02-08T05:27:10.301Z,101183.50
2023-02-08T05:29:36.841Z,101187.25
2023-02-08T05:32:03.572Z,101196.66
2023-02-08T05:34:30.223Z,101187.84
2023-02-08T05:36:56.779Z,101186.41
2023-02-08T05:39:23.654Z,101179.91
2023-02-08T05:41:50.192Z,101194.00
2023-02-08T05:44:16.774Z,101190.69
2023-02-08T05:46:43.577Z,101197.44
2023-02-08T05:49:10.490Z,101189.13
2023-02-08T05:51:37.177Z,101195.88
2023-02-08T05:54:04.005Z,101194.06
2023-02-08T05:56:31.017Z,101191.50
2023-02-08T05:59:00.495Z,101199.63
2023-02-08T06:01:27.350Z,101194.81
2023-02-08T06:03:54.243Z,101194.81
2023-02-08T06:06:21.807Z,101199.31
2023-02-08T06:08:48.530Z,101210.28
2023-02-08T06:11:15.166Z,101208.31
2023-02-08T06:13:41.801Z,101213.19
2023-02-08T06:16:08.726Z,101209.00
2023-02-08T06:18:35.343Z,101219.03
2023-02-08T06:21:01.924Z,101215.53
2023-02-08T06:23:28.561Z,101215.56
2023-02-08T06:25:55.191Z,101215.84
2023-02-08T06:28:21.760Z,101217.22
2023-02-08T06:30:52.569Z,101222.81
2023-02-08T06:33:19.448Z,101216.63
2023-02-08T06:35:47.354Z,101215.72
2023-02-08T06:38:14.828Z,101217.97
2023-02-08T06:40:41.555Z,101209.78
2023-02-08T06:43:08.323Z,101210.09
2023-02-08T06:45:35.127Z,101211.31
2023-02-08T06:48:01.767Z,101208.72
2023-02-08T06:50:28.491Z,101203.09
2023-02-08T06:52:55.167Z,101205.22
2023-02-08T06:55:21.742Z,101213.59
2023-02-08T06:57:48.276Z,101206.56
2023-02-08T07:00:15.472Z,101207.34
2023-02-08T07:02:42.071Z,101209.78
2023-02-08T07:05:08.938Z,101212.66
2023-02-08T07:07:35.711Z,101211.00
2023-02-08T07:10:02.329Z,101211.75
2023-02-08T07:12:28.922Z,101215.84
2023-02-08T07:14:55.621Z,101214.63
2023-02-08T07:17:22.224Z,101207.34
2023-02-08T07:19:48.889Z,101206.59
2023-02-08T07:22:15.790Z,101211.59
2023-02-08T07:24:42.903Z,101209.94
2023-02-08T07:27:11.353Z,101201.28
2023-02-08T07:29:38.260Z,101206.91
2023-02-08T07:32:06.382Z,101202.50
2023-02-08T07:34:35.474Z,101214.47
2023-02-08T07:37:02.987Z,101208.72
2023-02-08T07:39:31.421Z,101211.59
2023-02-08T07:41:58.814Z,101217.44
2023-02-08T07:44:25.772Z,101212.50
2023-02-08T07:46:52.404Z,101220.47
2023-02-08T07:49:19.044Z,101226.78
2023-02-08T07:51:45.827Z,101223.78
2023-02-08T07:54:12.538Z,101221.38
2023-02-08T07:56:39.203Z,101221.97
2023-02-08T07:59:06.157Z,101235.28
2023-02-08T08:01:33.013Z,101229.44
2023-02-08T08:03:59.674Z,101231.56
2023-02-08T08:06:26.570Z,101238.44
2023-02-08T08:08:53.824Z,101238.88
2023-02-08T08:11:21.453Z,101235.84
2023-02-08T08:13:48.851Z,101235.91
2023-02-08T08:16:15.920Z,101240.13
2023-02-08T08:18:42.551Z,101250.47
2023-02-08T08:21:09.913Z,101258.72
2023-02-08T08:23:37.068Z,101251.75
2023-02-08T08:26:18.851Z,101253.47
2023-02-08T08:28:46.961Z,101253.09
2023-02-08T08:31:19.221Z,101258.84
2023-02-08T08:33:46.013Z,101250.13
2023-02-08T08:36:12.702Z,101249.91
2023-02-08T08:38:40.311Z,101254.63
2023-02-08T08:41:15.002Z,101251.56
2023-02-08T08:43:41.642Z,101249.47
2023-02-08T08:46:09.385Z,101245.34
2023-02-08T08:48:37.145Z,101247.84
2023-02-08T08:51:04.025Z,101240.09
2023-02-08T08:53:30.836Z,101245.75
2023-02-08T08:55:57.487Z,101241.50
2023-02-08T08:58:24.041Z,101253.72
2023-02-08T09:00:51.001Z,101254.03
2023-02-08T09:03:17.756Z,101249.09
2023-02-08T09:05:44.458Z,101256.94
2023-02-08T09:08:11.140Z,101258.06
2023-02-08T09:10:37.942Z,101252.97
2023-02-08T09:13:04.627Z,101258.16
2023-02-08T09:15:31.447Z,101257.69
2023-02-08T09:17:58.269Z,101260.59
2023-02-08T09:20:24.909Z,101253.38
2023-02-08T09:22:53.326Z,101250.78
2023-02-08T09:25:20.155Z,101263.41
2023-02-08T09:27:46.710Z,101254.09
2023-02-08T09:30:14.367Z,101251.72
2023-02-08T09:32:41.245Z,101257.97
2023-02-08T09:35:08.479Z,101266.03
2023-02-08T09:37:35.292Z,101262.63
2023-02-08T09:40:02.430Z,101260.41
2023-02-08T09:42:28.952Z,101266.22
2023-02-08T09:45:10.653Z,101262.63
2023-02-08T09:48:03.871Z,101260.94
2023-02-08T09:50:36.066Z,101264.25
2023-02-08T09:53:17.809Z,101266.91
2023-02-08T09:55:48.250Z,101265.81
2023-02-08T09:58:26.440Z,101267.75
2023-02-08T10:00:54.938Z,101266.44
2023-02-08T10:03:29.260Z,101274.00
2023-02-08T10:05:56.129Z,101273.53
2023-02-08T10:08:26.942Z,101273.69
2023-02-08T10:11:07.346Z,101278.25
2023-02-08T10:13:55.727Z,101275.16
2023-02-08T10:16:35.658Z,101273.59
2023-02-08T10:19:25.583Z,101272.91
2023-02-08T10:22:01.853Z,101269.00
2023-02-08T10:25:09.605Z,101274.34
2023-02-08T10:28:14.708Z,101274.94
2023-02-08T10:30:47.354Z,101283.41
2023-02-08T10:33:48.363Z,101270.09
2023-02-08T10:36:19.965Z,101269.91
2023-02-08T10:38:51.292Z,101264.31
2023-02-08T10:41:23.258Z,101266.53
2023-02-08T10:44:06.030Z,101263.03
2023-02-08T10:46:37.231Z,101258.44
2023-02-08T10:49:08.509Z,101265.59
2023-02-08T10:51:35.214Z,101259.06
2023-02-08T10:54:02.115Z,101262.00
2023-02-08T10:56:45.681Z,101260.75
2023-02-08T10:59:25.979Z,101252.63
2023-02-08T11:01:53.804Z,101258.06
2023-02-08T11:04:20.804Z,101247.44
2023-02-08T11:06:49.714Z,101240.28
2023-02-08T11:09:29.290Z,101241.44
2023-02-08T11:11:57.842Z,101241.31
2023-02-08T11:14:47.722Z,101235.66
2023-02-08T11:17:32.991Z,101231.19
2023-02-08T11:20:00.286Z,101223.69
2023-02-08T11:22:31.386Z,101218.94
2023-02-08T11:25:05.646Z,101202.97
2023-02-08T11:27:40.549Z,101209.47
2023-02-08T11:30:20.481Z,101216.47
2023-02-08T11:32:49.688Z,101201.16
2023-02-08T11:35:22.677Z,101199.25
2023-02-08T11:37:50.230Z,101196.69
2023-02-08T11:40:24.640Z,101197.44
2023-02-08T11:42:52.844Z,101198.97
2023-02-08T11:45:23.530Z,101190.28
2023-02-08T11:47:51.139Z,101185.75
2023-02-08T11:50:52.888Z,101189.34
2023-02-08T11:53:29.066Z,101183.84
2023-02-08T11:56:07.578Z,101184.56
2023-02-08T11:58:34.731Z,101176.06
2023-02-08T12:01:17.523Z,101172.53
2023-02-08T12:03:46.124Z,101177.09
2023-02-08T12:06:34.779Z,101167.56
2023-02-08T12:09:19.889Z,101161.78
2023-02-08T12:12:08.526Z,101160.53
2023-02-08T12:15:06.505Z,101156.53
2023-02-08T12:17:43.767Z,101150.00
2023-02-08T12:20:39.131Z,101156.00
2023-02-08T12:23:30.547Z,101148.22
2023-02-08T12:26:11.089Z,101140.47
2023-02-08T12:28:49.296Z,101128.16
2023-02-08T12:31:23.709Z,101130.44
2023-02-08T12:33:59.852Z,101130.66
2023-02-08T12:37:14.440Z,101118.63
2023-02-08T12:40:16.995Z,101112.56
2023-02-08T12:42:55.408Z,101110.09
2023-02-08T12:46:00.181Z,101106.25
2023-02-08T12:48:27.133Z,101101.56
2023-02-08T12:50:59.208Z,101089.25
2023-02-08T12:53:38.309Z,101086.41
2023-02-08T12:56:18.601Z,101080.44
2023-02-08T12:58:55.047Z,101082.84
2023-02-08T13:01:31.721Z,101073.16
2023-02-08T13:04:07.247Z,101070.50
2023-02-08T13:06:42.715Z,101067.75
2023-02-08T13:09:35.656Z,101052.75
2023-02-08T13:12:23.924Z,101040.63
2023-02-08T13:14:55.243Z,101058.22
2023-02-08T13:17:27.758Z,101039.41
2023-02-08T13:20:32.884Z,101044.75
2023-02-08T13:23:06.447Z,101039.31
2023-02-08T13:25:36.778Z,101038.97
2023-02-08T13:28:06.204Z,101032.25
2023-02-08T13:30:38.861Z,101031.16
2023-02-08T13:33:18.280Z,101037.81
2023-02-08T13:35:51.579Z,101028.22
2023-02-08T13:38:32.069Z,101029.88
2023-02-08T13:41:08.245Z,101020.38
2023-02-08T13:43:40.420Z,101028.63
2023-02-08T13:46:08.177Z,101017.50
2023-02-08T13:48:48.401Z,101022.59
2023-02-08T13:51:54.159Z,101025.25
2023-02-08T13:54:21.378Z,101022.19
2023-02-08T13:56:50.828Z,101020.03
2023-02-08T13:59:37.916Z,101024.09
2023-02-08T14:02:15.020Z,101027.69
2023-02-08T14:04:43.126Z,101027.72
2023-02-08T14:07:33.802Z,101018.47
2023-02-08T14:10:06.012Z,101023.03
2023-02-08T14:12:45.415Z,101026.16
2023-02-08T14:15:15.381Z,101021.09
2023-02-08T14:17:47.174Z,101022.06
2023-02-08T14:20:41.124Z,101013.53
2023-02-08T14:23:25.515Z,101009.78
2023-02-08T14:25:55.400Z,101010.75
2023-02-08T14:28:36.798Z,101019.41
2023-02-08T14:31:07.459Z,101018.16
2023-02-08T14:33:52.890Z,101022.06
2023-02-08T14:36:27.274Z,101020.38
2023-02-08T14:39:22.444Z,101024.41
2023-02-08T14:41:51.828Z,101025.38
2023-02-08T14:44:43.419Z,101012.28
2023-02-08T14:47:35.353Z,101011.53
2023-02-08T14:50:15.800Z,101015.75
2023-02-08T14:52:51.666Z,101019.53
2023-02-08T14:55:27.643Z,101018.16
2023-02-08T14:58:00.952Z,101013.50
2023-02-08T15:00:34.365Z,101010.72
2023-02-08T15:03:03.812Z,101015.09
2023-02-08T15:05:35.860Z,101019.34
2023-02-08T15:08:03.404Z,101016.72
2023-02-08T15:10:32.289Z,101015.84
2023-02-08T15:13:03.908Z,101017.09
2023-02-08T15:15:34.707Z,101014.09
2023-02-08T15:18:03.365Z,101010.56
2023-02-08T15:20:32.728Z,101011.84
2023-02-08T15:22:59.314Z,101006.19
2023-02-08T15:25:30.249Z,101006.38
2023-02-08T15:28:24.595Z,101016.66
2023-02-08T15:31:00.763Z,101012.09
2023-02-08T15:33:28.010Z,101011.13
2023-02-08T15:36:01.279Z,101013.13
2023-02-08T15:38:30.066Z,101016.53
2023-02-08T15:41:15.106Z,101014.72
2023-02-08T15:43:43.484Z,101003.44
2023-02-08T15:46:23.570Z,101012.72
2023-02-08T15:48:50.924Z,101011.72
2023-02-08T15:51:20.256Z,101007.19
2023-02-08T15:53:50.468Z,100996.28
2023-02-08T15:56:35.779Z,101002.06
2023-02-08T15:59:05.218Z,101003.31
2023-02-08T16:01:32.489Z,101008.56
2023-02-08T16:04:02.548Z,101002.44
2023-02-08T16:06:34.123Z,101004.53
2023-02-08T16:09:03.214Z,101006.47
2023-02-08T16:11:35.647Z,101006.31
2023-02-08T16:14:04.911Z,101004.59
2023-02-08T16:16:41.977Z,101003.03
2023-02-08T16:19:32.478Z,101005.22
2023-02-08T16:22:25.781Z,101010.19
2023-02-08T16:24:52.769Z,101002.47
2023-02-08T16:27:26.097Z,101004.13
2023-02-08T16:29:53.417Z,101002.16
2023-02-08T16:32:28.202Z,100993.75
2023-02-08T16:34:55.264Z,101006.59
2023-02-08T16:37:33.428Z,100999.97
2023-02-08T16:40:02.782Z,101005.28
2023-02-08T16:42:36.910Z,101008.22
2023-02-08T16:45:15.514Z,101003.94
2023-02-08T16:47:53.815Z,100999.44
2023-02-08T16:50:26.140Z,101007.31
2023-02-08T16:53:04.203Z,101003.31
2023-02-08T16:55:32.950Z,101001.19
2023-02-08T16:58:00.246Z,101002.59
2023-02-08T17:00:35.442Z,101009.59
2023-02-08T17:03:02.612Z,101011.16
2023-02-08T17:05:36.962Z,101017.19
2023-02-08T17:08:06.878Z,101008.19
2023-02-08T17:10:33.766Z,101007.44
2023-02-08T17:13:18.716Z,101006.25
2023-02-08T17:15:48.045Z,101013.50
2023-02-08T17:18:15.233Z,101018.34
2023-02-08T17:20:42.392Z,101014.09
2023-02-08T17:23:10.315Z,101019.94
2023-02-08T17:25:37.325Z,101022.19
2023-02-08T17:28:11.673Z,101021.94
2023-02-08T17:30:41.641Z,101030.50
2023-02-08T17:33:11.703Z,101027.47
2023-02-08T17:35:38.472Z,101032.97
2023-02-08T17:38:07.074Z,101023.94
2023-02-08T17:40:36.475Z,101025.72
2023-02-08T17:43:04.711Z,101022.66
2023-02-08T17:45:31.884Z,101021.75
2023-02-08T17:48:01.292Z,101029.06
2023-02-08T17:50:28.037Z,101034.56
2023-02-08T17:52:55.816Z,101032.09
2023-02-08T17:55:22.750Z,101035.81
2023-02-08T17:57:49.352Z,101031.59
2023-02-08T18:00:19.105Z,101042.16
2023-02-08T18:02:47.910Z,101051.44
2023-02-08T18:05:15.814Z,101041.38
2023-02-08T18:07:42.627Z,101052.19
2023-02-08T18:10:12.362Z,101054.69
2023-02-08T18:12:39.043Z,101050.69
2023-02-08T18:15:08.291Z,101053.19
2023-02-08T18:17:35.880Z,101053.34
2023-02-08T18:20:02.956Z,101053.94
2023-02-08T18:22:30.275Z,101053.94
2023-02-08T18:24:56.945Z,101062.47
2023-02-08T18:27:25.068Z,101064.22
2023-02-08T18:29:52.013Z,101067.22
2023-02-08T18:32:20.354Z,101069.00
2023-02-08T18:34:47.545Z,101065.97
2023-02-08T18:37:14.969Z,101078.00
2023-02-08T18:39:41.871Z,101074.97
2023-02-08T18:42:08.588Z,101082.75
2023-02-08T18:44:37.145Z,101088.28
2023-02-08T18:47:04.655Z,101084.22
2023-02-08T18:49:31.449Z,101080.22
2023-02-08T18:51:58.105Z,101083.94
2023-02-08T18:54:24.712Z,101079.38
2023-02-08T18:56:54.715Z,101084.66
2023-02-08T18:59:21.563Z,101077.03
2023-02-08T19:01:48.237Z,101078.59
2023-02-08T19:04:14.847Z,101077.47
2023-02-08T19:06:41.601Z,101075.97
2023-02-08T19:09:09.153Z,101080.75
2023-02-08T19:11:38.542Z,101075.97
2023-02-08T19:14:08.551Z,101087.81
2023-02-08T19:16:36.653Z,101083.81
2023-02-08T19:19:04.654Z,101073.31
2023-02-08T19:21:32.929Z,101079.28
2023-02-08T19:24:03.026Z,101085.56
2023-02-08T19:26:39.908Z,101082.53
2023-02-08T19:29:13.506Z,101087.19
2023-02-08T19:31:41.687Z,101091.50
2023-02-08T19:34:10.096Z,101085.44
2023-02-08T19:36:52.157Z,101083.16
2023-02-08T19:39:27.289Z,101086.25
2023-02-08T19:41:55.110Z,101083.63
2023-02-08T19:44:22.008Z,101091.94
2023-02-08T19:46:50.869Z,101092.22
2023-02-08T19:49:18.366Z,101094.44
2023-02-08T19:51:45.155Z,101097.78
2023-02-08T19:54:15.972Z,101096.44
2023-02-08T19:56:43.054Z,101097.81
2023-02-08T19:59:27.146Z,101100.50
2023-02-08T20:01:55.341Z,101099.41
2023-02-08T20:04:22.391Z,101103.66
2023-02-08T20:06:52.350Z,101104.69
2023-02-08T20:09:19.052Z,101106.59
2023-02-08T20:12:01.013Z,101105.53
2023-02-08T20:14:31.240Z,101106.97
2023-02-08T20:16:57.915Z,101110.34
2023-02-08T20:19:24.910Z,101111.13
2023-02-08T20:21:52.040Z,101118.06
2023-02-08T20:24:18.881Z,101114.00
2023-02-08T20:26:47.229Z,101115.84
2023-02-08T20:29:14.770Z,101115.63
2023-02-08T20:31:43.730Z,101119.63
2023-02-08T20:34:13.406Z,101117.47
2023-02-08T20:36:49.752Z,101125.63
2023-02-08T20:39:21.366Z,101127.94
2023-02-08T20:41:48.366Z,101120.44
2023-02-08T20:44:17.459Z,101120.22
2023-02-08T20:46:44.752Z,101124.63
2023-02-08T20:49:14.750Z,101123.88
2023-02-08T20:51:41.476Z,101119.69
2023-02-08T20:54:08.057Z,101126.44
2023-02-08T20:56:36.292Z,101130.69
2023-02-08T20:59:05.497Z,101134.00
2023-02-08T21:01:34.652Z,101133.91
2023-02-08T21:04:02.570Z,101133.03
2023-02-08T21:06:33.302Z,101130.75
2023-02-08T21:09:03.159Z,101138.66
2023-02-08T21:11:31.468Z,101137.34
2023-02-08T21:13:58.628Z,101134.31
2023-02-08T21:16:25.857Z,101136.63
2023-02-08T21:18:52.669Z,101139.63
2023-02-08T21:21:20.069Z,101129.31
2023-02-08T21:23:47.446Z,101137.97
2023-02-08T21:26:17.643Z,101129.03
2023-02-08T21:28:45.218Z,101138.88
2023-02-08T21:31:20.065Z,101135.63
2023-02-08T21:33:46.914Z,101140.97
2023-02-08T21:36:15.931Z,101134.66
2023-02-08T21:38:43.507Z,101143.94
2023-02-08T21:41:13.697Z,101135.63
2023-02-08T21:43:40.292Z,101127.00
2023-02-08T21:46:07.999Z,101129.59
2023-02-08T21:48:54.836Z,101126.47
2023-02-08T21:51:41.500Z,101133.28
2023-02-08T21:54:35.891Z,101139.50
2023-02-08T21:57:04.645Z,101125.34
2023-02-08T21:59:35.360Z,101134.25
2023-02-08T22:02:02.262Z,101132.75
2023-02-08T22:04:28.868Z,101129.19
2023-02-08T22:06:55.504Z,101132.34
2023-02-08T22:09:22.074Z,101130.44
2023-02-08T22:11:49.275Z,101138.69
2023-02-08T22:14:15.930Z,101134.28
2023-02-08T22:16:42.532Z,101138.13
2023-02-08T22:19:09.440Z,101136.50
2023-02-08T22:21:36.069Z,101141.00
2023-02-08T22:24:02.913Z,101141.22
2023-02-08T22:26:29.749Z,101139.50
2023-02-08T22:28:56.482Z,101149.28
2023-02-08T22:31:23.155Z,101148.72
2023-02-08T22:33:53.620Z,101156.47
2023-02-08T22:36:21.264Z,101154.59
2023-02-08T22:38:47.871Z,101147.59
2023-02-08T22:41:16.072Z,101149.47
2023-02-08T22:43:42.760Z,101142.47
2023-02-08T22:46:09.526Z,101141.72
2023-02-08T22:48:36.467Z,101144.84
2023-02-08T22:51:11.262Z,101149.47
2023-02-08T22:53:37.926Z,101146.63
2023-02-08T22:56:05.041Z,101143.22
2023-02-08T22:58:32.064Z,101142.38
2023-02-08T23:00:59.325Z,101149.72
2023-02-08T23:03:26.220Z,101142.75
2023-02-08T23:05:53.386Z,101147.47
2023-02-08T23:08:21.799Z,101149.88
2023-02-08T23:10:48.354Z,101154.19
2023-02-08T23:13:14.945Z,101147.94
2023-02-08T23:15:43.854Z,101153.53
2023-02-08T23:18:10.505Z,101150.69
2023-02-08T23:20:39.271Z,101147.22
2023-02-08T23:23:06.028Z,101153.44
2023-02-08T23:25:32.683Z,101152.63
2023-02-08T23:27:59.300Z,101154.34
2023-02-08T23:30:25.940Z,101152.19
2023-02-08T23:32:52.467Z,101153.25
2023-02-08T23:35:19.044Z,101164.78
2023-02-08T23:37:45.679Z,101163.97
2023-02-08T23:40:12.537Z,101165.84
2023-02-08T23:42:39.139Z,101169.31
2023-02-08T23:45:06.561Z,101167.47
2023-02-08T23:47:33.401Z,101163.47
2023-02-08T23:50:00.340Z,101164.53
2023-02-08T23:52:27.160Z,101168.47
2023-02-08T23:54:53.676Z,101150.22
2023-02-08T23:57:20.259Z,101157.59
2023-02-08T23:59:47.077Z,101165.81
